Iberica Hav — C6YI3 — position and weather

sailwx.info

Track history (hours):
 
Tides and Currents Weather Stations Pressure Air Temp Water Temp Dewpoint Dewpoint Depression Visibility Wind Speed Wind Dir Waves Ship Positions

Iberica Hav

Last reported at 2015-Mar-26 04:22 UTC. Time now 2015-Apr-01 05:52 UTC.
Position N 57°29' E 017°15'.

Length 88 m; draft 3.4 m.

Type: Cargo ship. MMSI: 311034400.

Date/timePositionNaut miles runAvg speedWind from/ knotsBaromVisibWave heightAir tempDewpointWater temp
2015-Mar-26 04:22N 57°29' E 017°15'7 8.0
2015-Mar-26 03:33N 57°23' E 017°14'8 8.0
2015-Mar-26 02:33N 57°15' E 017°12'120 6.9
2015-Mar-25 09:11N 55°34' E 015°15'6 8.9
2015-Mar-25 08:31N 55°31' E 015°06'9 9.2
2015-Mar-25 07:33N 55°27' E 014°53'9 9.2
2015-Mar-25 06:33N 55°22' E 014°39'9 9.3
2015-Mar-25 05:33N 55°15' E 014°28'9 9.3
2015-Mar-25 04:33N 55°08' E 014°17'9 9.1
2015-Mar-25 03:33N 55°01' E 014°07'9 9.1
2015-Mar-25 02:32N 54°58' E 013°52'9 9.2
2015-Mar-25 01:33N 54°54' E 013°38'9 9.3
2015-Mar-25 00:32N 54°50' E 013°23'9 9.5
2015-Mar-24 23:33N 54°46' E 013°08'10 9.6
2015-Mar-24 22:30N 54°42' E 012°52'9 9.5
2015-Mar-24 21:33N 54°38' E 012°38'10 9.7
2015-Mar-24 20:33N 54°33' E 012°24'9 9.3
2015-Mar-24 19:33N 54°26' E 012°12'9 9.3
2015-Mar-24 18:33N 54°25' E 011°56'9 9.2
2015-Mar-24 17:33N 54°26' E 011°41'9 9.2
2015-Mar-24 16:33N 54°30' E 011°26'10 9.5
2015-Mar-24 15:33N 54°34' E 011°12'27 8.8
2015-Mar-24 12:32N 54°31' E 010°26'9 8.8
2015-Mar-24 11:33N 54°26' E 010°14'5 5.2
2015-Mar-24 10:33N 54°22' E 010°08'1 0.6
2015-Mar-24 09:33N 54°22' E 010°08'0 0.0
2015-Mar-24 08:33N 54°22' E 010°08'4 3.6
2015-Mar-24 07:33N 54°22' E 010°01'8 7.7
2015-Mar-24 06:33N 54°22' E 009°48'8 8.0
2015-Mar-24 05:33N 54°16' E 009°38'15 6.4
2015-Mar-24 03:13N 54°06' E 009°20'6 8.8
2015-Mar-24 02:33N 54°00' E 009°18'8 8.4
2015-Mar-24 01:34N 53°54' E 009°09'2 1.6
2015-Mar-24 00:33N 53°53' E 009°06'8 8.2
2015-Mar-23 23:34N 53°50' E 008°53'9 9.1
2015-Mar-23 22:33N 53°55' E 008°40'13 8.9
2015-Mar-23 21:08N 53°59' E 008°20'10 9.8
2015-Mar-23 20:07N 53°58' E 008°03'5 9.2
2015-Mar-23 19:33N 53°57' E 007°54'8 8.1
2015-Mar-23 18:33N 53°55' E 007°41'8 7.7
2015-Mar-23 17:33N 53°53' E 007°28'8 7.6
2015-Mar-23 16:33N 53°51' E 007°16'52 8.6
2015-Mar-23 10:33N 53°38' E 005°51'10 9.9
2015-Mar-23 09:33N 53°35' E 005°35'1010.0
2015-Mar-23 08:33N 53°31' E 005°19'1010.0
2015-Mar-23 07:33N 53°28' E 005°04'1010.3
2015-Mar-23 06:32N 53°24' E 004°47'141 8.7
2015-Mar-22 14:16N 51°34' E 002°23'9 9.7
2015-Mar-22 13:22N 51°27' E 002°14'12 9.1
2015-Mar-22 12:04N 51°16' E 002°06'5 8.9
2015-Mar-22 11:33N 51°13' E 002°01'7 7.1
2015-Mar-22 10:33N 51°08' E 001°52'5 5.4
2015-Mar-22 09:33N 51°05' E 001°45'5 4.8
2015-Mar-22 08:33N 51°01' E 001°40'5 4.7
2015-Mar-22 07:32N 50°58' E 001°35'5 4.7
2015-Mar-22 06:31N 50°54' E 001°30'89 7.4
2015-Mar-21 18:29N 49°46' E 000°01'6 6.4
2015-Mar-21 17:33N 49°41' W 000°03'7 7.1
2015-Mar-21 16:33N 49°34' W 000°02'9 8.6
2015-Mar-21 15:33N 49°28' E 000°09'2 2.2
2015-Mar-21 14:32N 49°29' E 000°12'0 0.0
2015-Mar-21 13:32N 49°29' E 000°12'0 0.0
2015-Mar-21 12:32N 49°29' E 000°12'0 0.0
2015-Mar-21 11:32N 49°29' E 000°12'0 0.0
2015-Mar-21 10:32N 49°29' E 000°12'0 0.0
2015-Mar-21 09:32N 49°29' E 000°12'0 0.0
2015-Mar-21 08:32N 49°29' E 000°12'0 0.0
2015-Mar-21 07:32N 49°29' E 000°12'0 0.0
2015-Mar-21 06:32N 49°29' E 000°12'0 0.0
2015-Mar-21 05:32N 49°29' E 000°12'0 0.0
2015-Mar-21 04:32N 49°29' E 000°12'0 0.0
2015-Mar-21 03:32N 49°29' E 000°12'0 0.0
2015-Mar-21 02:32N 49°29' E 000°12'0 0.0
2015-Mar-21 01:32N 49°29' E 000°12'0 0.0
2015-Mar-21 00:32N 49°29' E 000°12'0 0.0
2015-Mar-20 23:32N 49°29' E 000°12'0 0.0
2015-Mar-20 22:32N 49°29' E 000°12'0 0.0
2015-Mar-20 21:32N 49°29' E 000°12'0 0.0
2015-Mar-20 20:32N 49°29' E 000°12'0 0.0
2015-Mar-20 19:32N 49°29' E 000°12'0 0.0
2015-Mar-20 18:32N 49°29' E 000°12'0 0.0
2015-Mar-20 17:32N 49°29' E 000°12'0 0.0
2015-Mar-20 16:32N 49°29' E 000°12'1 1.1
2015-Mar-20 15:34N 49°29' E 000°10'5 5.4
2015-Mar-20 14:33N 49°30' E 000°02'4 4.2
2015-Mar-20 13:31N 49°29' W 000°05'0 0.0
2015-Mar-20 12:31N 49°29' W 000°04'0 0.0
2015-Mar-20 11:31N 49°29' W 000°04'2 2.3
2015-Mar-20 10:34N 49°32' W 000°06'9 8.9
2015-Mar-20 09:33N 49°40' W 000°07'59 6.4
2015-Mar-20 00:15N 50°34' E 000°33'6 7.7
2015-Mar-19 23:25N 50°37' E 000°42'7 7.6
2015-Mar-19 22:33N 50°42' E 000°49'24 7.9
2015-Mar-19 19:32N 50°58' E 001°17'1111.0
2015-Mar-19 18:33N 51°05' E 001°30'1110.7
2015-Mar-19 17:33N 51°15' E 001°36'1010.0
2015-Mar-19 16:34N 51°24' E 001°30'10 9.9
2015-Mar-19 15:34N 51°29' E 001°16'1110.7
2015-Mar-19 14:34N 51°29' E 000°59'1212.2
2015-Mar-19 13:34N 51°30' E 000°40'10 9.8
2015-Mar-19 12:33N 51°27' E 000°25'8 7.8
2015-Mar-19 11:34N 51°29' E 000°13'3 2.9
2015-Mar-19 10:27N 51°31' E 000°09'0 0.0
2015-Mar-19 09:33N 51°31' E 000°09'0 0.0
2015-Mar-19 08:30N 51°31' E 000°09'0 0.0
2015-Mar-19 07:33N 51°31' E 000°09'0 0.0
2015-Mar-19 06:33N 51°31' E 000°09'0 0.0
2015-Mar-19 05:33N 51°31' E 000°09'0 0.0
2015-Mar-19 04:27N 51°31' E 000°09'0 0.0
2015-Mar-19 03:33N 51°31' E 000°09'0 0.0
2015-Mar-19 02:30N 51°31' E 000°09'0 0.0
2015-Mar-19 01:27N 51°31' E 000°09'0 0.0
2015-Mar-19 00:33N 51°31' E 000°09'0 0.0
2015-Mar-18 23:33N 51°31' E 000°09'0 0.0
2015-Mar-18 22:27N 51°31' E 000°09'0 0.0
2015-Mar-18 20:21N 51°31' E 000°09'0 0.0
2015-Mar-18 19:33N 51°31' E 000°09'0 0.0
2015-Mar-18 18:33N 51°31' E 000°09'0 0.0
2015-Mar-18 17:33N 51°31' E 000°09'0 0.0
2015-Mar-18 16:33N 51°31' E 000°09'0 0.0
2015-Mar-18 15:24N 51°31' E 000°09'0 0.0
2015-Mar-18 13:12N 51°31' E 000°09'0 0.0
2015-Mar-18 12:18N 51°31' E 000°09'0 0.0
2015-Mar-18 11:24N 51°31' E 000°09'5 6.3
2015-Mar-18 10:33N 51°28' E 000°16'7 7.3
2015-Mar-18 09:33N 51°29' E 000°27'8 7.9
2015-Mar-18 08:33N 51°30' E 000°40'8 8.1
2015-Mar-18 07:34N 51°30' E 000°53'4 3.1
2015-Mar-18 06:10N 51°31' E 000°59'0 0.1
2015-Mar-18 05:16N 51°31' E 000°59'0 0.1
2015-Mar-18 04:04N 51°31' E 000°60'0 0.0
2015-Mar-18 03:19N 51°31' E 000°60'0 0.0
2015-Mar-18 02:10N 51°31' E 000°60'0 0.0
2015-Mar-18 01:28N 51°31' E 000°60'0 0.0
2015-Mar-18 00:25N 51°31' E 000°60'0 0.0
2015-Mar-17 23:07N 51°31' E 000°60'0 0.2
2015-Mar-17 22:22N 51°31' E 000°59'0 0.0
2015-Mar-17 21:22N 51°31' E 000°59'2 2.0
2015-Mar-17 20:33N 51°29' E 000°59'10 9.9
2015-Mar-17 19:33N 51°29' E 001°14'9 9.1
2015-Mar-17 18:33N 51°27' E 001°28'7 7.0
2015-Mar-17 17:33N 51°21' E 001°34'6 6.2
2015-Mar-17 16:33N 51°15' E 001°38'6 5.6
2015-Mar-17 15:33N 51°10' E 001°35'6 5.7
2015-Mar-17 14:32N 51°04' E 001°36'7 7.3
2015-Mar-17 13:33N 50°58' E 001°31'95 8.7
2015-Mar-17 02:33N 50°17' W 000°45'  
Track history (hours):
 
Tides and Currents Weather Stations Pressure Air Temp Water Temp Dewpoint Dewpoint Depression Visibility Wind Speed Wind Dir Waves Ship Positions

Iberica Hav

Last reported at 2015-Mar-26 04:22 UTC. Time now 2015-Apr-01 05:52 UTC.
Position N 57°29' E 017°15'.

Length 88 m; draft 3.4 m.

Type: Cargo ship. MMSI: 311034400.

Date/timePositionNaut miles runAvg speedWind from/ knotsBaromVisibWave heightAir tempDewpointWater temp
2015-Mar-26 04:22N 57°29' E 017°15'7 8.0
2015-Mar-26 03:33N 57°23' E 017°14'8 8.0
2015-Mar-26 02:33N 57°15' E 017°12'120 6.9
2015-Mar-25 09:11N 55°34' E 015°15'6 8.9
2015-Mar-25 08:31N 55°31' E 015°06'9 9.2
2015-Mar-25 07:33N 55°27' E 014°53'9 9.2
2015-Mar-25 06:33N 55°22' E 014°39'9 9.3
2015-Mar-25 05:33N 55°15' E 014°28'9 9.3
2015-Mar-25 04:33N 55°08' E 014°17'9 9.1
2015-Mar-25 03:33N 55°01' E 014°07'9 9.1
2015-Mar-25 02:32N 54°58' E 013°52'9 9.2
2015-Mar-25 01:33N 54°54' E 013°38'9 9.3
2015-Mar-25 00:32N 54°50' E 013°23'9 9.5
2015-Mar-24 23:33N 54°46' E 013°08'10 9.6
2015-Mar-24 22:30N 54°42' E 012°52'9 9.5
2015-Mar-24 21:33N 54°38' E 012°38'10 9.7
2015-Mar-24 20:33N 54°33' E 012°24'9 9.3
2015-Mar-24 19:33N 54°26' E 012°12'9 9.3
2015-Mar-24 18:33N 54°25' E 011°56'9 9.2
2015-Mar-24 17:33N 54°26' E 011°41'9 9.2
2015-Mar-24 16:33N 54°30' E 011°26'10 9.5
2015-Mar-24 15:33N 54°34' E 011°12'27 8.8
2015-Mar-24 12:32N 54°31' E 010°26'9 8.8
2015-Mar-24 11:33N 54°26' E 010°14'5 5.2
2015-Mar-24 10:33N 54°22' E 010°08'1 0.6
2015-Mar-24 09:33N 54°22' E 010°08'0 0.0
2015-Mar-24 08:33N 54°22' E 010°08'4 3.6
2015-Mar-24 07:33N 54°22' E 010°01'8 7.7
2015-Mar-24 06:33N 54°22' E 009°48'8 8.0
2015-Mar-24 05:33N 54°16' E 009°38'15 6.4
2015-Mar-24 03:13N 54°06' E 009°20'6 8.8
2015-Mar-24 02:33N 54°00' E 009°18'8 8.4
2015-Mar-24 01:34N 53°54' E 009°09'2 1.6
2015-Mar-24 00:33N 53°53' E 009°06'8 8.2
2015-Mar-23 23:34N 53°50' E 008°53'9 9.1
2015-Mar-23 22:33N 53°55' E 008°40'13 8.9
2015-Mar-23 21:08N 53°59' E 008°20'10 9.8
2015-Mar-23 20:07N 53°58' E 008°03'5 9.2
2015-Mar-23 19:33N 53°57' E 007°54'8 8.1
2015-Mar-23 18:33N 53°55' E 007°41'8 7.7
2015-Mar-23 17:33N 53°53' E 007°28'8 7.6
2015-Mar-23 16:33N 53°51' E 007°16'52 8.6
2015-Mar-23 10:33N 53°38' E 005°51'10 9.9
2015-Mar-23 09:33N 53°35' E 005°35'1010.0
2015-Mar-23 08:33N 53°31' E 005°19'1010.0
2015-Mar-23 07:33N 53°28' E 005°04'1010.3
2015-Mar-23 06:32N 53°24' E 004°47'141 8.7
2015-Mar-22 14:16N 51°34' E 002°23'9 9.7
2015-Mar-22 13:22N 51°27' E 002°14'12 9.1
2015-Mar-22 12:04N 51°16' E 002°06'5 8.9
2015-Mar-22 11:33N 51°13' E 002°01'7 7.1
2015-Mar-22 10:33N 51°08' E 001°52'5 5.4
2015-Mar-22 09:33N 51°05' E 001°45'5 4.8
2015-Mar-22 08:33N 51°01' E 001°40'5 4.7
2015-Mar-22 07:32N 50°58' E 001°35'5 4.7
2015-Mar-22 06:31N 50°54' E 001°30'89 7.4
2015-Mar-21 18:29N 49°46' E 000°01'6 6.4
2015-Mar-21 17:33N 49°41' W 000°03'7 7.1
2015-Mar-21 16:33N 49°34' W 000°02'9 8.6
2015-Mar-21 15:33N 49°28' E 000°09'2 2.2
2015-Mar-21 14:32N 49°29' E 000°12'0 0.0
2015-Mar-21 13:32N 49°29' E 000°12'0 0.0
2015-Mar-21 12:32N 49°29' E 000°12'0 0.0
2015-Mar-21 11:32N 49°29' E 000°12'0 0.0
2015-Mar-21 10:32N 49°29' E 000°12'0 0.0
2015-Mar-21 09:32N 49°29' E 000°12'0 0.0
2015-Mar-21 08:32N 49°29' E 000°12'0 0.0
2015-Mar-21 07:32N 49°29' E 000°12'0 0.0
2015-Mar-21 06:32N 49°29' E 000°12'0 0.0
2015-Mar-21 05:32N 49°29' E 000°12'0 0.0
2015-Mar-21 04:32N 49°29' E 000°12'0 0.0
2015-Mar-21 03:32N 49°29' E 000°12'0 0.0
2015-Mar-21 02:32N 49°29' E 000°12'0 0.0
2015-Mar-21 01:32N 49°29' E 000°12'0 0.0
2015-Mar-21 00:32N 49°29' E 000°12'0 0.0
2015-Mar-20 23:32N 49°29' E 000°12'0 0.0
2015-Mar-20 22:32N 49°29' E 000°12'0 0.0
2015-Mar-20 21:32N 49°29' E 000°12'0 0.0
2015-Mar-20 20:32N 49°29' E 000°12'0 0.0
2015-Mar-20 19:32N 49°29' E 000°12'0 0.0
2015-Mar-20 18:32N 49°29' E 000°12'0 0.0
2015-Mar-20 17:32N 49°29' E 000°12'0 0.0
2015-Mar-20 16:32N 49°29' E 000°12'1 1.1
2015-Mar-20 15:34N 49°29' E 000°10'5 5.4
2015-Mar-20 14:33N 49°30' E 000°02'4 4.2
2015-Mar-20 13:31N 49°29' W 000°05'0 0.0
2015-Mar-20 12:31N 49°29' W 000°04'0 0.0
2015-Mar-20 11:31N 49°29' W 000°04'2 2.3
2015-Mar-20 10:34N 49°32' W 000°06'9 8.9
2015-Mar-20 09:33N 49°40' W 000°07'59 6.4
2015-Mar-20 00:15N 50°34' E 000°33'6 7.7
2015-Mar-19 23:25N 50°37' E 000°42'7 7.6
2015-Mar-19 22:33N 50°42' E 000°49'24 7.9
2015-Mar-19 19:32N 50°58' E 001°17'1111.0
2015-Mar-19 18:33N 51°05' E 001°30'1110.7
2015-Mar-19 17:33N 51°15' E 001°36'1010.0
2015-Mar-19 16:34N 51°24' E 001°30'10 9.9
2015-Mar-19 15:34N 51°29' E 001°16'1110.7
2015-Mar-19 14:34N 51°29' E 000°59'1212.2
2015-Mar-19 13:34N 51°30' E 000°40'10 9.8
2015-Mar-19 12:33N 51°27' E 000°25'8 7.8
2015-Mar-19 11:34N 51°29' E 000°13'3 2.9
2015-Mar-19 10:27N 51°31' E 000°09'0 0.0
2015-Mar-19 09:33N 51°31' E 000°09'0 0.0
2015-Mar-19 08:30N 51°31' E 000°09'0 0.0
2015-Mar-19 07:33N 51°31' E 000°09'0 0.0
2015-Mar-19 06:33N 51°31' E 000°09'0 0.0
2015-Mar-19 05:33N 51°31' E 000°09'0 0.0
2015-Mar-19 04:27N 51°31' E 000°09'0 0.0
2015-Mar-19 03:33N 51°31' E 000°09'0 0.0
2015-Mar-19 02:30N 51°31' E 000°09'0 0.0
2015-Mar-19 01:27N 51°31' E 000°09'0 0.0
2015-Mar-19 00:33N 51°31' E 000°09'0 0.0
2015-Mar-18 23:33N 51°31' E 000°09'0 0.0
2015-Mar-18 22:27N 51°31' E 000°09'0 0.0
2015-Mar-18 20:21N 51°31' E 000°09'0 0.0
2015-Mar-18 19:33N 51°31' E 000°09'0 0.0
2015-Mar-18 18:33N 51°31' E 000°09'0 0.0
2015-Mar-18 17:33N 51°31' E 000°09'0 0.0
2015-Mar-18 16:33N 51°31' E 000°09'0 0.0
2015-Mar-18 15:24N 51°31' E 000°09'0 0.0
2015-Mar-18 13:12N 51°31' E 000°09'0 0.0
2015-Mar-18 12:18N 51°31' E 000°09'0 0.0
2015-Mar-18 11:24N 51°31' E 000°09'5 6.3
2015-Mar-18 10:33N 51°28' E 000°16'7 7.3
2015-Mar-18 09:33N 51°29' E 000°27'8 7.9
2015-Mar-18 08:33N 51°30' E 000°40'8 8.1
2015-Mar-18 07:34N 51°30' E 000°53'4 3.1
2015-Mar-18 06:10N 51°31' E 000°59'0 0.1
2015-Mar-18 05:16N 51°31' E 000°59'0 0.1
2015-Mar-18 04:04N 51°31' E 000°60'0 0.0
2015-Mar-18 03:19N 51°31' E 000°60'0 0.0
2015-Mar-18 02:10N 51°31' E 000°60'0 0.0
2015-Mar-18 01:28N 51°31' E 000°60'0 0.0
2015-Mar-18 00:25N 51°31' E 000°60'0 0.0
2015-Mar-17 23:07N 51°31' E 000°60'0 0.2
2015-Mar-17 22:22N 51°31' E 000°59'0 0.0
2015-Mar-17 21:22N 51°31' E 000°59'2 2.0
2015-Mar-17 20:33N 51°29' E 000°59'10 9.9
2015-Mar-17 19:33N 51°29' E 001°14'9 9.1
2015-Mar-17 18:33N 51°27' E 001°28'7 7.0
2015-Mar-17 17:33N 51°21' E 001°34'6 6.2
2015-Mar-17 16:33N 51°15' E 001°38'6 5.6
2015-Mar-17 15:33N 51°10' E 001°35'6 5.7
2015-Mar-17 14:32N 51°04' E 001°36'7 7.3
2015-Mar-17 13:33N 50°58' E 001°31'95 8.7
2015-Mar-17 02:33N 50°17' W 000°45'  

Dump ship's entire track history